createdAt,value
2023-05-04T00:01:11.364Z,4.10
2023-05-04T00:03:38.777Z,4.10
2023-05-04T00:06:05.891Z,4.00
2023-05-04T00:08:32.751Z,4.00
2023-05-04T00:10:59.656Z,4.00
2023-05-04T00:13:26.716Z,4.00
2023-05-04T00:15:53.783Z,4.00
2023-05-04T00:18:20.736Z,3.90
2023-05-04T00:20:47.610Z,3.90
2023-05-04T00:23:14.640Z,3.80
2023-05-04T00:25:41.468Z,3.80
2023-05-04T00:28:08.451Z,3.80
2023-05-04T00:30:35.372Z,3.80
2023-05-04T00:33:04.841Z,3.90
2023-05-04T00:35:31.921Z,3.80
2023-05-04T00:37:58.864Z,3.80
2023-05-04T00:40:26.033Z,3.60
2023-05-04T00:42:52.893Z,3.50
2023-05-04T00:45:20.178Z,3.50
2023-05-04T00:47:48.624Z,3.40
2023-05-04T00:50:15.592Z,3.30
2023-05-04T00:52:46.749Z,3.40
2023-05-04T00:55:14.582Z,3.30
2023-05-04T00:57:41.942Z,3.40
2023-05-04T01:00:12.405Z,3.40
2023-05-04T01:02:41.173Z,3.40
2023-05-04T01:05:15.055Z,3.40
2023-05-04T01:08:13.730Z,3.20
2023-05-04T01:11:07.156Z,3.20
2023-05-04T01:13:35.912Z,3.10
2023-05-04T01:16:04.962Z,3.00
2023-05-04T01:18:32.073Z,3.00
2023-05-04T01:20:59.066Z,2.90
2023-05-04T01:23:26.285Z,2.90
2023-05-04T01:26:20.546Z,2.90
2023-05-04T01:28:54.465Z,2.80
2023-05-04T01:31:24.706Z,2.70
2023-05-04T01:33:54.696Z,2.70
2023-05-04T01:36:23.732Z,2.70
2023-05-04T01:38:54.987Z,2.70
2023-05-04T01:41:21.903Z,2.70
2023-05-04T01:43:48.869Z,2.70
2023-05-04T01:46:15.818Z,2.60
2023-05-04T01:48:42.735Z,2.60
2023-05-04T01:51:09.618Z,2.60
2023-05-04T01:53:36.565Z,2.60
2023-05-04T01:56:03.755Z,2.60
2023-05-04T01:58:31.979Z,2.60
2023-05-04T02:01:01.530Z,2.60
2023-05-04T02:03:28.766Z,2.50
2023-05-04T02:05:55.705Z,2.60
2023-05-04T02:08:22.644Z,2.50
2023-05-04T02:10:49.646Z,2.40
2023-05-04T02:13:16.738Z,2.70
2023-05-04T02:15:43.846Z,2.40
2023-05-04T02:18:10.861Z,2.40
2023-05-04T02:20:37.832Z,2.40
2023-05-04T02:23:04.809Z,2.20
2023-05-04T02:25:32.132Z,2.20
2023-05-04T02:27:59.005Z,2.20
2023-05-04T02:30:25.997Z,2.10
2023-05-04T02:32:52.888Z,2.10
2023-05-04T02:35:19.855Z,2.10
2023-05-04T02:37:46.713Z,2.10
2023-05-04T02:40:13.957Z,2.00
2023-05-04T02:42:40.860Z,2.00
2023-05-04T02:45:08.637Z,2.00
2023-05-04T02:47:35.562Z,2.00
2023-05-04T02:50:02.857Z,2.10
2023-05-04T02:52:30.031Z,2.10
2023-05-04T02:54:57.097Z,2.20
2023-05-04T02:57:23.960Z,2.20
2023-05-04T02:59:51.434Z,2.20
2023-05-04T03:02:18.426Z,2.20
2023-05-04T03:04:45.332Z,2.20
2023-05-04T03:07:12.316Z,2.20
2023-05-04T03:09:39.176Z,2.20
2023-05-04T03:12:06.415Z,2.20
2023-05-04T03:14:33.463Z,2.10
2023-05-04T03:17:00.635Z,2.10
2023-05-04T03:19:27.501Z,2.10
2023-05-04T03:21:54.368Z,2.10
2023-05-04T03:24:22.105Z,2.10
2023-05-04T03:26:49.031Z,2.00
2023-05-04T03:29:15.893Z,1.90
2023-05-04T03:31:42.750Z,1.80
2023-05-04T03:34:12.460Z,1.80
2023-05-04T03:36:39.352Z,1.80
2023-05-04T03:39:06.326Z,1.70
2023-05-04T03:41:33.210Z,1.70
2023-05-04T03:44:00.007Z,1.80
2023-05-04T03:46:26.948Z,1.80
2023-05-04T03:48:53.974Z,1.80
2023-05-04T03:51:21.679Z,1.80
2023-05-04T03:53:48.561Z,1.90
2023-05-04T03:56:15.510Z,1.90
2023-05-04T03:58:42.501Z,1.90
2023-05-04T04:01:09.435Z,1.90
2023-05-04T04:03:36.691Z,1.80
2023-05-04T04:06:03.858Z,1.90
2023-05-04T04:08:30.805Z,1.80
2023-05-04T04:10:58.539Z,1.90
2023-05-04T04:13:25.568Z,1.90
2023-05-04T04:15:52.441Z,1.90
2023-05-04T04:18:19.355Z,2.00
2023-05-04T04:20:46.482Z,2.00
2023-05-04T04:23:13.431Z,2.00
2023-05-04T04:25:40.322Z,2.10
2023-05-04T04:28:07.207Z,2.20
2023-05-04T04:30:34.073Z,2.20
2023-05-04T04:33:00.964Z,2.30
2023-05-04T04:35:28.039Z,2.40
2023-05-04T04:37:54.969Z,2.40
2023-05-04T04:40:22.623Z,2.50
2023-05-04T04:42:49.564Z,2.60
2023-05-04T04:45:16.638Z,2.60
2023-05-04T04:47:43.525Z,2.60
2023-05-04T04:50:11.137Z,2.70
2023-05-04T04:52:38.957Z,2.70
2023-05-04T04:55:07.547Z,2.80
2023-05-04T04:57:34.687Z,2.90
2023-05-04T05:00:02.202Z,3.00
2023-05-04T05:02:29.271Z,3.20
2023-05-04T05:04:56.802Z,3.40
2023-05-04T05:07:23.663Z,3.40
2023-05-04T05:09:50.750Z,3.50
2023-05-04T05:12:17.658Z,3.70
2023-05-04T05:14:45.736Z,3.90
2023-05-04T05:17:12.761Z,4.20
2023-05-04T05:19:40.992Z,4.60
2023-05-04T05:22:09.336Z,4.90
2023-05-04T05:24:36.305Z,5.30
2023-05-04T05:27:03.847Z,5.80
2023-05-04T05:29:31.612Z,6.60
2023-05-04T05:31:58.532Z,7.40
2023-05-04T05:34:25.329Z,8.00
2023-05-04T05:36:52.286Z,8.60
2023-05-04T05:39:19.198Z,9.00
2023-05-04T05:41:46.068Z,9.50
2023-05-04T05:44:13.315Z,9.70
2023-05-04T05:46:40.425Z,9.70
2023-05-04T05:49:07.449Z,9.60
2023-05-04T05:51:34.658Z,9.40
2023-05-04T05:54:01.890Z,9.20
2023-05-04T05:56:28.790Z,9.00
2023-05-04T05:58:55.861Z,8.90
2023-05-04T06:01:22.889Z,9.40
2023-05-04T06:03:49.947Z,10.30
2023-05-04T06:06:17.298Z,11.40
2023-05-04T06:08:44.292Z,12.50
2023-05-04T06:11:11.882Z,13.50
2023-05-04T06:13:39.440Z,14.30
2023-05-04T06:16:06.404Z,15.00
2023-05-04T06:18:33.291Z,15.70
2023-05-04T06:21:01.289Z,16.60
2023-05-04T06:23:29.609Z,17.60
2023-05-04T06:25:56.563Z,18.30
2023-05-04T06:28:23.741Z,18.90
2023-05-04T06:30:50.824Z,19.60
2023-05-04T06:33:17.984Z,19.90
2023-05-04T06:35:45.629Z,19.80
2023-05-04T06:39:31.813Z,19.90
2023-05-04T06:41:58.757Z,19.70
2023-05-04T06:44:25.790Z,19.40
2023-05-04T06:46:52.847Z,19.30
2023-05-04T06:49:19.827Z,19.30
2023-05-04T06:51:46.771Z,19.20
2023-05-04T06:54:13.760Z,19.30
2023-05-04T06:56:40.691Z,19.50
2023-05-04T06:59:08.958Z,19.50
2023-05-04T07:01:36.031Z,19.40
2023-05-04T07:04:03.151Z,19.30
2023-05-04T07:06:30.715Z,19.50
2023-05-04T07:08:57.757Z,19.50
2023-05-04T07:11:24.903Z,19.90
2023-05-04T07:13:51.793Z,20.10
2023-05-04T07:16:18.697Z,20.50
2023-05-04T07:18:45.587Z,20.80
2023-05-04T07:21:26.858Z,20.70
2023-05-04T07:23:55.935Z,20.10
2023-05-04T07:26:23.453Z,19.50
2023-05-04T07:28:50.505Z,19.00
2023-05-04T07:31:17.475Z,18.80
2023-05-04T07:33:44.341Z,18.60
2023-05-04T07:36:11.182Z,18.60
2023-05-04T07:38:38.087Z,18.20
2023-05-04T07:45:11.899Z,18.60
2023-05-04T07:47:38.853Z,19.30
2023-05-04T07:50:06.771Z,20.30
2023-05-04T07:52:36.299Z,21.30
2023-05-04T07:55:03.221Z,21.60
2023-05-04T08:07:15.489Z,22.10
2023-05-04T08:09:42.550Z,21.90
2023-05-04T08:12:09.414Z,21.90
2023-05-04T08:15:08.718Z,22.80
2023-05-04T08:17:37.482Z,23.50
2023-05-04T08:20:05.742Z,23.80
2023-05-04T08:22:33.459Z,23.60
2023-05-04T08:25:00.428Z,23.20
2023-05-04T08:27:27.347Z,22.80
2023-05-04T08:29:54.271Z,22.80
2023-05-04T08:32:21.119Z,22.80
2023-05-04T08:34:47.954Z,22.40
2023-05-04T08:38:17.761Z,22.00
2023-05-04T08:40:44.638Z,22.00
2023-05-04T08:43:12.090Z,22.30
2023-05-04T08:45:40.249Z,22.60
2023-05-04T08:48:08.614Z,22.60
2023-05-04T08:50:38.022Z,22.70
2023-05-04T08:53:12.055Z,23.00
2023-05-04T08:55:42.266Z,23.20
2023-05-04T08:58:12.954Z,23.80
2023-05-04T09:00:41.277Z,24.30
2023-05-04T09:03:10.846Z,24.70
2023-05-04T09:05:38.458Z,24.60
2023-05-04T09:08:06.474Z,24.30
2023-05-04T09:10:34.548Z,23.90
2023-05-04T09:13:01.466Z,23.60
2023-05-04T09:15:28.328Z,23.30
2023-05-04T09:18:03.208Z,22.70
2023-05-04T09:20:31.076Z,23.70
2023-05-04T09:23:07.354Z,24.40
2023-05-04T09:25:52.336Z,24.90
2023-05-04T09:28:34.182Z,25.50
2023-05-04T09:31:02.566Z,25.70
2023-05-04T09:33:29.597Z,26.10
2023-05-04T09:35:58.182Z,26.50
2023-05-04T09:38:32.562Z,26.40
2023-05-04T09:40:59.456Z,25.70
2023-05-04T09:43:37.576Z,24.90
2023-05-04T09:46:04.493Z,25.10
2023-05-04T09:48:32.336Z,24.80
2023-05-04T09:51:06.395Z,24.30
2023-05-04T09:53:40.362Z,24.30
2023-05-04T09:56:27.458Z,24.50
2023-05-04T09:59:00.254Z,24.50
2023-05-04T10:01:30.589Z,24.60
2023-05-04T10:03:58.372Z,24.80
2023-05-04T10:06:28.421Z,25.20
2023-05-04T10:08:56.716Z,24.90
2023-05-04T10:11:25.853Z,24.20
2023-05-04T10:13:57.358Z,23.70
2023-05-04T10:16:53.316Z,22.90
2023-05-04T10:19:50.347Z,22.90
2023-05-04T10:22:43.657Z,22.40
2023-05-04T10:25:55.065Z,22.10
2023-05-04T10:29:10.174Z,22.00
2023-05-04T10:31:42.464Z,22.50
2023-05-04T10:34:10.624Z,22.40
2023-05-04T10:36:39.851Z,22.70
2023-05-04T10:39:24.219Z,23.00
2023-05-04T10:42:02.617Z,22.60
2023-05-04T10:44:32.302Z,22.50
2023-05-04T10:47:06.841Z,22.90
2023-05-04T10:49:35.747Z,23.60
2023-05-04T10:52:13.591Z,24.00
2023-05-04T10:54:41.745Z,24.50
2023-05-04T10:57:14.710Z,24.60
2023-05-04T10:59:41.808Z,23.80
2023-05-04T11:02:09.291Z,23.50
2023-05-04T11:04:37.836Z,23.30
2023-05-04T11:07:08.384Z,23.10
2023-05-04T11:09:39.202Z,23.00
2023-05-04T11:12:10.629Z,22.80
2023-05-04T11:14:42.367Z,22.10
2023-05-04T11:17:26.843Z,21.60
2023-05-04T11:19:55.188Z,21.30
2023-05-04T11:22:22.388Z,21.20
2023-05-04T11:24:49.665Z,21.30
2023-05-04T11:27:27.479Z,21.20
2023-05-04T11:30:04.341Z,21.10
2023-05-04T11:32:39.529Z,20.80
2023-05-04T11:35:16.904Z,20.70
2023-05-04T11:37:46.316Z,20.60
2023-05-04T11:40:19.748Z,20.60
2023-05-04T11:42:48.455Z,20.60
2023-05-04T11:45:25.095Z,20.30
2023-05-04T11:47:53.673Z,20.30
2023-05-04T11:50:21.488Z,20.30
2023-05-04T11:52:49.483Z,20.50
2023-05-04T11:55:31.199Z,20.70
2023-05-04T11:58:05.933Z,20.70
2023-05-04T12:00:46.894Z,20.80
2023-05-04T12:03:35.857Z,20.70
2023-05-04T12:06:10.815Z,20.80
2023-05-04T12:08:44.949Z,20.90
2023-05-04T12:11:16.363Z,20.90
2023-05-04T12:13:49.218Z,21.20
2023-05-04T12:16:21.048Z,21.10
2023-05-04T12:18:48.534Z,21.20
2023-05-04T12:21:21.516Z,21.30
2023-05-04T12:23:48.599Z,21.20
2023-05-04T12:26:18.126Z,21.30
2023-05-04T12:28:47.313Z,21.20
2023-05-04T12:31:14.396Z,21.00
2023-05-04T12:33:41.517Z,21.00
2023-05-04T12:36:08.686Z,21.10
2023-05-04T12:38:36.049Z,21.10
2023-05-04T12:41:04.527Z,21.30
2023-05-04T12:43:33.006Z,21.40
2023-05-04T12:46:00.331Z,21.70
2023-05-04T12:48:29.176Z,21.80
2023-05-04T12:50:56.211Z,21.60
2023-05-04T12:53:25.824Z,22.00
2023-05-04T12:55:52.801Z,21.90
2023-05-04T12:58:19.968Z,22.10
2023-05-04T13:00:47.124Z,22.10
2023-05-04T13:03:14.625Z,22.40
2023-05-04T13:05:41.640Z,22.40
2023-05-04T13:08:08.734Z,22.40
2023-05-04T13:10:36.085Z,22.50
2023-05-04T13:13:04.870Z,22.20
2023-05-04T13:15:35.078Z,21.90
2023-05-04T13:18:02.176Z,21.90
2023-05-04T13:20:29.065Z,21.70
2023-05-04T13:22:58.249Z,21.70
2023-05-04T13:25:25.643Z,21.60
2023-05-04T13:27:52.921Z,21.70
2023-05-04T13:30:21.727Z,21.80
2023-05-04T13:32:49.385Z,21.80
2023-05-04T13:35:16.469Z,21.80
2023-05-04T13:37:43.408Z,22.00
2023-05-04T13:40:11.487Z,22.10
2023-05-04T13:42:38.419Z,22.10
2023-05-04T13:45:07.013Z,22.20
2023-05-04T13:47:37.097Z,22.20
2023-05-04T13:50:04.881Z,22.30
2023-05-04T13:52:32.616Z,22.20
2023-05-04T13:54:59.855Z,22.00
2023-05-04T13:57:29.798Z,22.10
2023-05-04T14:00:07.018Z,22.20
2023-05-04T14:02:34.717Z,22.30
2023-05-04T14:05:04.172Z,22.30
2023-05-04T14:07:31.437Z,22.30
2023-05-04T14:09:59.450Z,22.30
2023-05-04T14:12:26.450Z,22.30
2023-05-04T14:14:53.318Z,22.40
2023-05-04T14:17:20.439Z,22.20
2023-05-04T14:19:47.369Z,22.10
2023-05-04T14:22:14.242Z,22.00
2023-05-04T14:24:41.227Z,22.10
2023-05-04T14:27:08.422Z,22.10
2023-05-04T14:29:35.939Z,22.30
2023-05-04T14:32:02.869Z,22.30
2023-05-04T14:34:29.838Z,22.20
2023-05-04T14:36:56.888Z,22.40
2023-05-04T14:39:23.813Z,22.20
2023-05-04T14:41:53.023Z,22.40
2023-05-04T14:44:20.653Z,22.20
2023-05-04T14:46:47.608Z,22.30
2023-05-04T14:49:24.613Z,22.30
2023-05-04T14:52:01.330Z,22.30
2023-05-04T14:54:28.152Z,22.30
2023-05-04T14:56:55.037Z,22.10
2023-05-04T14:59:22.165Z,21.80
2023-05-04T15:01:49.040Z,22.00
2023-05-04T15:04:17.121Z,22.00
2023-05-04T15:06:43.983Z,21.90
2023-05-04T15:09:10.980Z,21.90
2023-05-04T15:11:37.947Z,21.90
2023-05-04T15:14:04.821Z,22.10
2023-05-04T15:16:32.927Z,21.80
2023-05-04T15:19:00.296Z,21.80
2023-05-04T15:21:27.985Z,21.60
2023-05-04T15:23:55.177Z,21.40
2023-05-04T15:26:22.223Z,21.30
2023-05-04T15:28:51.103Z,21.20
2023-05-04T15:31:19.102Z,21.30
2023-05-04T15:33:45.998Z,21.30
2023-05-04T15:36:12.878Z,21.20
2023-05-04T15:38:39.779Z,21.20
2023-05-04T15:41:07.043Z,21.10
2023-05-04T15:43:34.398Z,21.10
2023-05-04T15:46:01.855Z,21.10
2023-05-04T15:48:28.791Z,21.00
2023-05-04T15:50:55.796Z,21.00
2023-05-04T15:53:23.081Z,20.80
2023-05-04T15:55:51.076Z,20.80
2023-05-04T15:58:18.177Z,20.80
2023-05-04T16:00:45.224Z,20.90
2023-05-04T16:03:12.338Z,21.00
2023-05-04T16:05:39.305Z,21.30
2023-05-04T16:08:06.263Z,21.60
2023-05-04T16:10:33.434Z,21.70
2023-05-04T16:13:04.040Z,21.70
2023-05-04T16:15:31.359Z,21.60
2023-05-04T16:17:58.468Z,21.40
2023-05-04T16:20:28.869Z,21.10
2023-05-04T16:22:56.016Z,21.00
2023-05-04T16:25:22.919Z,21.10
2023-05-04T16:27:49.819Z,21.00
2023-05-04T16:30:17.257Z,21.00
2023-05-04T16:32:44.753Z,21.10
2023-05-04T16:35:11.774Z,21.20
2023-05-04T16:37:39.373Z,21.30
2023-05-04T16:40:24.856Z,21.30
2023-05-04T16:42:51.747Z,21.10
2023-05-04T16:45:18.587Z,21.00
2023-05-04T16:47:45.913Z,20.90
2023-05-04T16:50:14.286Z,20.80
2023-05-04T16:52:41.701Z,20.70
2023-05-04T16:55:12.098Z,20.70
2023-05-04T16:57:39.824Z,20.70
2023-05-04T17:00:09.164Z,20.50
2023-05-04T17:02:36.437Z,20.30
2023-05-04T17:05:06.556Z,20.30
2023-05-04T17:07:34.240Z,20.30
2023-05-04T17:10:01.530Z,20.20
2023-05-04T17:12:29.010Z,20.20
2023-05-04T17:14:56.124Z,20.20
2023-05-04T17:17:23.195Z,20.30
2023-05-04T17:19:50.173Z,20.20
2023-05-04T17:22:17.537Z,20.10
2023-05-04T17:24:45.748Z,20.00
2023-05-04T17:27:13.549Z,19.90
2023-05-04T17:29:41.168Z,19.90
2023-05-04T17:32:08.868Z,19.80
2023-05-04T17:34:36.430Z,19.70
2023-05-04T17:37:03.901Z,19.60
2023-05-04T17:39:31.654Z,19.60
2023-05-04T17:42:19.944Z,19.50
2023-05-04T17:44:46.812Z,19.50
2023-05-04T17:47:13.699Z,19.40
2023-05-04T17:49:40.630Z,19.40
2023-05-04T17:52:07.555Z,19.30
2023-05-04T17:54:34.554Z,19.20
2023-05-04T17:57:01.553Z,19.10
2023-05-04T17:59:28.460Z,19.10
2023-05-04T18:01:55.411Z,18.90
2023-05-04T18:04:22.393Z,18.80
2023-05-04T18:06:50.799Z,18.70
2023-05-04T18:09:19.509Z,18.50
2023-05-04T18:11:47.198Z,18.40
2023-05-04T18:14:14.024Z,18.40
2023-05-04T18:16:41.052Z,18.20
2023-05-04T18:19:08.111Z,18.10
2023-05-04T18:21:36.989Z,18.00
2023-05-04T18:24:04.778Z,17.90
2023-05-04T18:26:31.906Z,17.80
2023-05-04T18:29:07.959Z,17.70
2023-05-04T18:31:44.810Z,17.60
2023-05-04T18:34:11.757Z,17.50
2023-05-04T18:36:38.629Z,17.40
2023-05-04T18:39:05.563Z,17.20
2023-05-04T18:41:32.587Z,17.20
2023-05-04T18:44:00.939Z,17.10
2023-05-04T18:46:28.343Z,17.10
2023-05-04T18:48:56.372Z,17.00
2023-05-04T18:51:23.291Z,17.00
2023-05-04T18:53:50.181Z,16.90
2023-05-04T18:56:17.117Z,16.90
2023-05-04T18:58:44.362Z,16.80
2023-05-04T19:01:11.376Z,16.70
2023-05-04T19:03:38.316Z,16.60
2023-05-04T19:06:05.376Z,16.50
2023-05-04T19:08:34.268Z,16.50
2023-05-04T19:11:03.235Z,16.40
2023-05-04T19:13:30.342Z,16.40
2023-05-04T19:15:57.313Z,16.30
2023-05-04T19:18:24.634Z,16.30
2023-05-04T19:20:51.594Z,16.20
2023-05-04T19:23:18.581Z,16.00
2023-05-04T19:25:45.417Z,15.80
2023-05-04T19:28:12.525Z,15.70
2023-05-04T19:30:40.166Z,15.60
2023-05-04T19:33:10.640Z,15.50
2023-05-04T19:35:37.544Z,15.40
2023-05-04T19:38:08.161Z,15.30
2023-05-04T19:40:35.131Z,15.30
2023-05-04T19:43:02.103Z,15.20
2023-05-04T19:45:29.057Z,15.00
2023-05-04T19:47:56.552Z,15.10
2023-05-04T19:50:23.780Z,14.90
2023-05-04T19:52:56.008Z,14.70
2023-05-04T19:55:23.191Z,14.60
2023-05-04T19:57:50.159Z,14.40
2023-05-04T20:00:19.641Z,14.30
2023-05-04T20:02:47.001Z,14.30
2023-05-04T20:05:14.290Z,14.20
2023-05-04T20:07:42.004Z,14.20
2023-05-04T20:10:09.462Z,14.10
2023-05-04T20:12:36.569Z,14.00
2023-05-04T20:15:04.443Z,13.90
2023-05-04T20:17:31.495Z,13.90
2023-05-04T20:19:58.553Z,13.80
2023-05-04T20:22:25.384Z,13.70
2023-05-04T20:24:52.552Z,13.60
2023-05-04T20:27:19.451Z,13.50
2023-05-04T20:29:46.490Z,13.50
2023-05-04T20:32:13.871Z,13.30
2023-05-04T20:34:43.029Z,13.30
2023-05-04T20:37:10.099Z,13.20
2023-05-04T20:39:37.013Z,13.20
2023-05-04T20:42:05.657Z,13.20
2023-05-04T20:44:33.444Z,13.20
2023-05-04T20:47:00.284Z,13.10
2023-05-04T20:49:27.346Z,13.00
2023-05-04T20:51:54.175Z,12.90
2023-05-04T20:54:21.140Z,12.90
2023-05-04T20:56:47.963Z,12.90
2023-05-04T20:59:14.825Z,12.90
2023-05-04T21:01:41.740Z,13.00
2023-05-04T21:04:08.653Z,13.00
2023-05-04T21:06:35.529Z,13.10
2023-05-04T21:09:02.499Z,13.10
2023-05-04T21:11:29.382Z,13.00
2023-05-04T21:13:56.215Z,13.00
2023-05-04T21:16:23.138Z,13.00
2023-05-04T21:18:50.153Z,13.00
2023-05-04T21:21:17.123Z,12.90
2023-05-04T21:23:43.977Z,12.90
2023-05-04T21:26:11.553Z,12.80
2023-05-04T21:28:38.560Z,12.70
2023-05-04T21:31:09.421Z,12.70
2023-05-04T21:33:36.608Z,12.70
2023-05-04T21:36:16.121Z,12.60
2023-05-04T21:38:43.424Z,12.70
2023-05-04T21:41:13.405Z,12.50
2023-05-04T21:43:41.373Z,12.40
2023-05-04T21:46:08.642Z,12.40
2023-05-04T21:48:36.208Z,12.30
2023-05-04T21:51:03.046Z,12.30
2023-05-04T21:53:33.361Z,12.20
2023-05-04T21:56:01.826Z,12.10
2023-05-04T21:58:28.803Z,12.10
2023-05-04T22:00:55.786Z,12.10
2023-05-04T22:03:22.931Z,12.00
2023-05-04T22:05:57.747Z,12.00
2023-05-04T22:08:25.687Z,11.90
2023-05-04T22:10:55.800Z,11.80
2023-05-04T22:13:23.266Z,11.80
2023-05-04T22:15:50.991Z,11.60
2023-05-04T22:18:18.296Z,11.60
2023-05-04T22:20:46.034Z,11.60
2023-05-04T22:23:13.645Z,11.60
2023-05-04T22:25:40.888Z,11.60
2023-05-04T22:28:07.855Z,11.60
2023-05-04T22:30:34.815Z,11.60
2023-05-04T22:33:01.908Z,11.50
2023-05-04T22:35:31.172Z,11.60
2023-05-04T22:37:58.211Z,11.50
2023-05-04T22:40:25.313Z,11.50
2023-05-04T22:42:52.360Z,11.50
2023-05-04T22:45:19.678Z,11.50
2023-05-04T22:47:47.046Z,11.50
2023-05-04T22:50:14.301Z,11.60
2023-05-04T22:52:41.702Z,11.70
2023-05-04T22:55:09.290Z,11.80
2023-05-04T22:57:36.795Z,11.80
2023-05-04T23:00:09.303Z,11.80
2023-05-04T23:02:36.688Z,11.90
2023-05-04T23:05:04.097Z,11.90
2023-05-04T23:07:31.145Z,12.00
2023-05-04T23:09:58.237Z,12.00
2023-05-04T23:12:26.834Z,12.10
2023-05-04T23:14:54.651Z,12.10
2023-05-04T23:17:22.048Z,12.10
2023-05-04T23:19:48.948Z,12.20
2023-05-04T23:22:16.270Z,12.20
2023-05-04T23:24:43.180Z,12.20
2023-05-04T23:27:11.186Z,12.20
2023-05-04T23:29:38.312Z,12.20
2023-05-04T23:32:05.948Z,12.20
2023-05-04T23:34:32.851Z,12.20
2023-05-04T23:36:59.746Z,12.20
2023-05-04T23:39:27.373Z,12.20
2023-05-04T23:41:54.176Z,12.20
2023-05-04T23:44:21.301Z,12.10
2023-05-04T23:46:48.222Z,12.20
2023-05-04T23:49:15.220Z,12.10
2023-05-04T23:51:42.033Z,12.20
2023-05-04T23:54:09.160Z,11.90
2023-05-04T23:56:36.296Z,11.90
2023-05-04T23:59:03.774Z,11.90
